sensor_id;sensor_type;location;lat;lon;timestamp;pressure;altitude;pressure_sealevel;temperature;humidity
80988;BME280;70452;39.386;-3.210;2023-08-12T00:00:37;94551.53;;;29.46;16.77
80988;BME280;70452;39.386;-3.210;2023-08-12T00:03:10;94553.03;;;29.22;16.98
80988;BME280;70452;39.386;-3.210;2023-08-12T00:05:41;94550.31;;;29.33;16.69
80988;BME280;70452;39.386;-3.210;2023-08-12T00:08:11;94545.50;;;29.44;16.91
80988;BME280;70452;39.386;-3.210;2023-08-12T00:10:41;94545.47;;;29.26;16.79
80988;BME280;70452;39.386;-3.210;2023-08-12T00:13:14;94541.84;;;29.29;17.12
80988;BME280;70452;39.386;-3.210;2023-08-12T00:15:47;94542.69;;;29.44;16.55
80988;BME280;70452;39.386;-3.210;2023-08-12T00:18:25;94541.44;;;29.31;16.93
80988;BME280;70452;39.386;-3.210;2023-08-12T00:20:54;94534.28;;;29.37;16.80
80988;BME280;70452;39.386;-3.210;2023-08-12T00:23:29;94538.22;;;29.18;16.86
80988;BME280;70452;39.386;-3.210;2023-08-12T00:26:04;94532.56;;;29.14;18.04
80988;BME280;70452;39.386;-3.210;2023-08-12T00:28:33;94535.75;;;29.13;17.47
80988;BME280;70452;39.386;-3.210;2023-08-12T00:31:00;94543.00;;;28.48;16.61
80988;BME280;70452;39.386;-3.210;2023-08-12T00:33:37;94541.63;;;28.23;16.45
80988;BME280;70452;39.386;-3.210;2023-08-12T00:36:06;94539.81;;;27.97;16.86
80988;BME280;70452;39.386;-3.210;2023-08-12T00:38:35;94534.72;;;28.10;15.93
80988;BME280;70452;39.386;-3.210;2023-08-12T00:41:05;94537.09;;;28.08;16.39
80988;BME280;70452;39.386;-3.210;2023-08-12T00:43:39;94539.53;;;28.10;15.73
80988;BME280;70452;39.386;-3.210;2023-08-12T00:46:12;94540.88;;;28.30;16.48
80988;BME280;70452;39.386;-3.210;2023-08-12T00:48:42;94545.78;;;28.44;15.85
80988;BME280;70452;39.386;-3.210;2023-08-12T00:51:15;94545.03;;;28.51;15.89
80988;BME280;70452;39.386;-3.210;2023-08-12T00:53:49;94540.13;;;28.37;15.77
80988;BME280;70452;39.386;-3.210;2023-08-12T00:56:20;94542.41;;;28.20;16.52
80988;BME280;70452;39.386;-3.210;2023-08-12T00:58:55;94541.56;;;28.13;16.63
80988;BME280;70452;39.386;-3.210;2023-08-12T01:01:38;94542.00;;;27.77;17.03
80988;BME280;70452;39.386;-3.210;2023-08-12T01:04:13;94532.09;;;27.87;18.16
80988;BME280;70452;39.386;-3.210;2023-08-12T01:06:41;94527.06;;;27.62;17.68
80988;BME280;70452;39.386;-3.210;2023-08-12T01:09:19;94526.22;;;27.58;17.96
80988;BME280;70452;39.386;-3.210;2023-08-12T01:14:56;94525.91;;;26.95;20.24
80988;BME280;70452;39.386;-3.210;2023-08-12T01:17:41;94529.81;;;26.87;20.58
80988;BME280;70452;39.386;-3.210;2023-08-12T01:20:13;94523.69;;;26.78;21.61
80988;BME280;70452;39.386;-3.210;2023-08-12T01:22:44;94525.75;;;26.54;24.25
80988;BME280;70452;39.386;-3.210;2023-08-12T01:25:26;94522.41;;;26.45;25.93
80988;BME280;70452;39.386;-3.210;2023-08-12T01:27:55;94522.38;;;26.42;26.04
80988;BME280;70452;39.386;-3.210;2023-08-12T01:30:23;94515.13;;;26.37;26.76
80988;BME280;70452;39.386;-3.210;2023-08-12T01:33:08;94520.31;;;26.38;27.12
80988;BME280;70452;39.386;-3.210;2023-08-12T01:35:43;94522.84;;;26.47;27.03
80988;BME280;70452;39.386;-3.210;2023-08-12T01:38:21;94524.13;;;26.27;27.73
80988;BME280;70452;39.386;-3.210;2023-08-12T01:40:54;94523.41;;;26.30;28.22
80988;BME280;70452;39.386;-3.210;2023-08-12T01:43:28;94525.19;;;26.15;28.90
80988;BME280;70452;39.386;-3.210;2023-08-12T01:46:07;94523.34;;;25.99;30.12
80988;BME280;70452;39.386;-3.210;2023-08-12T01:51:29;94533.63;;;25.95;32.47
80988;BME280;70452;39.386;-3.210;2023-08-12T01:54:03;94530.31;;;25.67;33.26
80988;BME280;70452;39.386;-3.210;2023-08-12T01:56:32;94525.69;;;25.74;33.53
80988;BME280;70452;39.386;-3.210;2023-08-12T01:59:03;94527.31;;;25.75;33.61
80988;BME280;70452;39.386;-3.210;2023-08-12T02:01:35;94520.28;;;25.85;33.20
80988;BME280;70452;39.386;-3.210;2023-08-12T02:04:09;94517.00;;;25.79;33.51
80988;BME280;70452;39.386;-3.210;2023-08-12T02:06:44;94510.94;;;25.97;32.49
80988;BME280;70452;39.386;-3.210;2023-08-12T02:09:18;94507.94;;;25.86;32.24
80988;BME280;70452;39.386;-3.210;2023-08-12T02:12:01;94511.47;;;25.83;33.69
80988;BME280;70452;39.386;-3.210;2023-08-12T02:14:35;94514.34;;;25.63;36.10
80988;BME280;70452;39.386;-3.210;2023-08-12T02:17:11;94514.28;;;25.60;39.33
80988;BME280;70452;39.386;-3.210;2023-08-12T02:19:39;94518.94;;;25.75;40.97
80988;BME280;70452;39.386;-3.210;2023-08-12T02:22:13;94521.00;;;25.82;43.05
80988;BME280;70452;39.386;-3.210;2023-08-12T02:24:39;94532.31;;;25.89;44.55
80988;BME280;70452;39.386;-3.210;2023-08-12T02:27:08;94526.88;;;25.50;47.25
80988;BME280;70452;39.386;-3.210;2023-08-12T02:29:40;94523.00;;;25.35;49.15
80988;BME280;70452;39.386;-3.210;2023-08-12T02:32:12;94513.31;;;25.09;51.52
80988;BME280;70452;39.386;-3.210;2023-08-12T02:34:51;94511.59;;;24.82;53.71
80988;BME280;70452;39.386;-3.210;2023-08-12T02:37:29;94506.50;;;24.87;53.97
80988;BME280;70452;39.386;-3.210;2023-08-12T02:39:59;94504.25;;;24.93;54.15
80988;BME280;70452;39.386;-3.210;2023-08-12T02:42:29;94505.19;;;25.01;53.12
80988;BME280;70452;39.386;-3.210;2023-08-12T02:45:09;94509.59;;;24.82;54.46
80988;BME280;70452;39.386;-3.210;2023-08-12T02:47:46;94511.00;;;24.73;54.54
80988;BME280;70452;39.386;-3.210;2023-08-12T02:50:18;94510.03;;;24.65;55.58
80988;BME280;70452;39.386;-3.210;2023-08-12T02:52:51;94498.50;;;24.47;56.15
80988;BME280;70452;39.386;-3.210;2023-08-12T02:55:23;94499.66;;;24.46;56.50
80988;BME280;70452;39.386;-3.210;2023-08-12T02:57:54;94498.34;;;24.40;57.19
80988;BME280;70452;39.386;-3.210;2023-08-12T03:00:20;94495.88;;;24.54;56.40
80988;BME280;70452;39.386;-3.210;2023-08-12T03:02:56;94499.22;;;24.44;57.01
80988;BME280;70452;39.386;-3.210;2023-08-12T03:05:26;94500.16;;;24.32;58.04
80988;BME280;70452;39.386;-3.210;2023-08-12T03:08:07;94497.91;;;24.02;59.97
80988;BME280;70452;39.386;-3.210;2023-08-12T03:10:41;94494.78;;;24.23;59.26
80988;BME280;70452;39.386;-3.210;2023-08-12T03:13:13;94492.25;;;23.99;60.60
80988;BME280;70452;39.386;-3.210;2023-08-12T03:15:57;94491.78;;;24.12;59.75
80988;BME280;70452;39.386;-3.210;2023-08-12T03:18:32;94480.78;;;23.84;61.31
80988;BME280;70452;39.386;-3.210;2023-08-12T03:21:12;94490.63;;;23.98;60.59
80988;BME280;70452;39.386;-3.210;2023-08-12T03:23:40;94490.19;;;23.95;61.09
80988;BME280;70452;39.386;-3.210;2023-08-12T03:26:11;94485.44;;;23.64;63.72
80988;BME280;70452;39.386;-3.210;2023-08-12T03:28:44;94479.44;;;23.46;65.43
80988;BME280;70452;39.386;-3.210;2023-08-12T03:31:16;94483.13;;;23.50;65.28
80988;BME280;70452;39.386;-3.210;2023-08-12T03:33:59;94483.66;;;23.40;66.40
80988;BME280;70452;39.386;-3.210;2023-08-12T03:36:29;94497.63;;;23.28;66.74
80988;BME280;70452;39.386;-3.210;2023-08-12T03:39:06;94497.78;;;23.19;67.37
80988;BME280;70452;39.386;-3.210;2023-08-12T03:41:34;94494.66;;;23.20;67.36
80988;BME280;70452;39.386;-3.210;2023-08-12T03:43:59;94500.25;;;23.36;65.87
80988;BME280;70452;39.386;-3.210;2023-08-12T03:46:35;94499.78;;;23.34;66.59
80988;BME280;70452;39.386;-3.210;2023-08-12T03:49:13;94491.78;;;23.17;67.38
80988;BME280;70452;39.386;-3.210;2023-08-12T03:51:47;94493.94;;;23.24;67.06
80988;BME280;70452;39.386;-3.210;2023-08-12T03:54:15;94486.97;;;23.30;66.52
80988;BME280;70452;39.386;-3.210;2023-08-12T03:56:47;94487.50;;;23.19;66.97
80988;BME280;70452;39.386;-3.210;2023-08-12T03:59:19;94472.72;;;23.03;68.05
80988;BME280;70452;39.386;-3.210;2023-08-12T04:01:56;94478.28;;;23.03;67.69
80988;BME280;70452;39.386;-3.210;2023-08-12T04:04:25;94478.00;;;22.92;68.14
80988;BME280;70452;39.386;-3.210;2023-08-12T04:06:54;94490.38;;;22.95;68.26
80988;BME280;70452;39.386;-3.210;2023-08-12T04:09:20;94470.75;;;23.03;67.21
80988;BME280;70452;39.386;-3.210;2023-08-12T04:11:54;94484.88;;;22.82;68.59
80988;BME280;70452;39.386;-3.210;2023-08-12T04:14:27;94479.81;;;22.72;69.31
80988;BME280;70452;39.386;-3.210;2023-08-12T04:16:56;94477.34;;;22.83;68.98
80988;BME280;70452;39.386;-3.210;2023-08-12T04:19:28;94482.75;;;22.63;70.53
80988;BME280;70452;39.386;-3.210;2023-08-12T04:22:01;94469.72;;;22.52;71.42
80988;BME280;70452;39.386;-3.210;2023-08-12T04:24:30;94474.56;;;22.55;71.18
80988;BME280;70452;39.386;-3.210;2023-08-12T04:27:10;94465.94;;;22.44;72.18
80988;BME280;70452;39.386;-3.210;2023-08-12T04:29:46;94475.13;;;22.32;73.23
80988;BME280;70452;39.386;-3.210;2023-08-12T04:32:18;94471.75;;;22.39;73.05
80988;BME280;70452;39.386;-3.210;2023-08-12T04:34:53;94475.63;;;22.50;72.34
80988;BME280;70452;39.386;-3.210;2023-08-12T04:37:23;94484.22;;;22.45;72.34
80988;BME280;70452;39.386;-3.210;2023-08-12T04:39:56;94473.34;;;22.40;73.44
80988;BME280;70452;39.386;-3.210;2023-08-12T04:42:31;94474.69;;;22.58;72.21
80988;BME280;70452;39.386;-3.210;2023-08-12T04:45:19;94478.75;;;22.48;72.78
80988;BME280;70452;39.386;-3.210;2023-08-12T04:47:45;94487.31;;;22.56;71.77
80988;BME280;70452;39.386;-3.210;2023-08-12T04:50:21;94484.53;;;22.56;72.39
80988;BME280;70452;39.386;-3.210;2023-08-12T04:52:50;94484.88;;;22.54;72.02
80988;BME280;70452;39.386;-3.210;2023-08-12T04:55:44;94492.03;;;22.55;72.60
80988;BME280;70452;39.386;-3.210;2023-08-12T05:01:16;94478.59;;;22.29;74.01
80988;BME280;70452;39.386;-3.210;2023-08-12T05:03:45;94486.78;;;22.38;73.78
80988;BME280;70452;39.386;-3.210;2023-08-12T05:06:14;94482.31;;;22.33;74.09
80988;BME280;70452;39.386;-3.210;2023-08-12T05:08:52;94473.34;;;22.40;73.24
80988;BME280;70452;39.386;-3.210;2023-08-12T05:11:34;94479.34;;;22.54;72.64
80988;BME280;70452;39.386;-3.210;2023-08-12T05:14:12;94493.31;;;22.05;76.18
80988;BME280;70452;39.386;-3.210;2023-08-12T05:16:44;94488.78;;;22.13;75.45
80988;BME280;70452;39.386;-3.210;2023-08-12T05:19:12;94494.00;;;22.02;76.68
80988;BME280;70452;39.386;-3.210;2023-08-12T05:21:54;94495.84;;;22.10;75.88
80988;BME280;70452;39.386;-3.210;2023-08-12T05:24:22;94507.53;;;21.91;77.30
80988;BME280;70452;39.386;-3.210;2023-08-12T05:26:57;94515.88;;;21.79;77.67
80988;BME280;70452;39.386;-3.210;2023-08-12T05:29:44;94532.28;;;21.96;76.79
80988;BME280;70452;39.386;-3.210;2023-08-12T05:32:20;94524.50;;;22.02;76.31
80988;BME280;70452;39.386;-3.210;2023-08-12T05:35:02;94525.56;;;22.09;75.35
80988;BME280;70452;39.386;-3.210;2023-08-12T05:37:50;94524.25;;;22.19;74.95
80988;BME280;70452;39.386;-3.210;2023-08-12T05:40:27;94528.34;;;21.97;76.53
80988;BME280;70452;39.386;-3.210;2023-08-12T05:45:56;94529.47;;;22.08;75.82
80988;BME280;70452;39.386;-3.210;2023-08-12T05:48:35;94537.50;;;22.63;72.41
80988;BME280;70452;39.386;-3.210;2023-08-12T05:51:37;94523.44;;;23.00;69.90
80988;BME280;70452;39.386;-3.210;2023-08-12T05:57:38;94543.34;;;23.14;68.79
80988;BME280;70452;39.386;-3.210;2023-08-12T06:00:26;94531.63;;;23.69;65.99
80988;BME280;70452;39.386;-3.210;2023-08-12T06:02:59;94537.38;;;24.08;63.87
80988;BME280;70452;39.386;-3.210;2023-08-12T06:05:54;94544.13;;;24.07;64.14
80988;BME280;70452;39.386;-3.210;2023-08-12T06:08:51;94539.19;;;23.84;64.72
80988;BME280;70452;39.386;-3.210;2023-08-12T06:11:26;94543.94;;;24.00;63.67
80988;BME280;70452;39.386;-3.210;2023-08-12T06:14:08;94548.22;;;24.64;61.64
80988;BME280;70452;39.386;-3.210;2023-08-12T06:16:38;94544.75;;;24.16;63.79
80988;BME280;70452;39.386;-3.210;2023-08-12T06:19:15;94540.34;;;24.50;62.08
80988;BME280;70452;39.386;-3.210;2023-08-12T06:21:52;94547.38;;;24.80;60.87
80988;BME280;70452;39.386;-3.210;2023-08-12T06:24:32;94545.47;;;25.03;59.78
80988;BME280;70452;39.386;-3.210;2023-08-12T06:27:06;94553.59;;;25.32;58.61
80988;BME280;70452;39.386;-3.210;2023-08-12T06:29:40;94548.69;;;24.50;61.45
80988;BME280;70452;39.386;-3.210;2023-08-12T06:32:08;94551.16;;;23.85;64.47
80988;BME280;70452;39.386;-3.210;2023-08-12T06:34:50;94548.91;;;24.97;60.36
80988;BME280;70452;39.386;-3.210;2023-08-12T06:37:23;94556.75;;;25.50;58.06
80988;BME280;70452;39.386;-3.210;2023-08-12T06:39:49;94552.03;;;24.56;60.96
80988;BME280;70452;39.386;-3.210;2023-08-12T06:42:17;94550.94;;;24.80;60.30
80988;BME280;70452;39.386;-3.210;2023-08-12T06:44:49;94551.41;;;25.02;58.70
80988;BME280;70452;39.386;-3.210;2023-08-12T06:47:19;94551.63;;;25.98;54.97
80988;BME280;70452;39.386;-3.210;2023-08-12T06:49:52;94557.63;;;26.00;53.99
80988;BME280;70452;39.386;-3.210;2023-08-12T06:52:22;94560.13;;;25.39;56.43
80988;BME280;70452;39.386;-3.210;2023-08-12T06:55:14;94561.84;;;26.13;53.55
80988;BME280;70452;39.386;-3.210;2023-08-12T06:57:46;94569.22;;;25.79;54.19
80988;BME280;70452;39.386;-3.210;2023-08-12T07:00:23;94565.22;;;25.99;53.58
80988;BME280;70452;39.386;-3.210;2023-08-12T07:02:58;94569.22;;;26.25;52.40
80988;BME280;70452;39.386;-3.210;2023-08-12T07:05:45;94565.69;;;26.05;53.03
80988;BME280;70452;39.386;-3.210;2023-08-12T07:08:16;94562.13;;;26.58;50.44
80988;BME280;70452;39.386;-3.210;2023-08-12T07:10:45;94561.66;;;27.09;48.34
80988;BME280;70452;39.386;-3.210;2023-08-12T07:13:22;94566.31;;;26.71;49.02
80988;BME280;70452;39.386;-3.210;2023-08-12T07:15:51;94565.91;;;26.69;48.67
80988;BME280;70452;39.386;-3.210;2023-08-12T07:18:18;94571.47;;;26.43;48.18
80988;BME280;70452;39.386;-3.210;2023-08-12T07:20:56;94573.34;;;26.88;47.21
80988;BME280;70452;39.386;-3.210;2023-08-12T07:23:26;94576.59;;;27.24;45.86
80988;BME280;70452;39.386;-3.210;2023-08-12T07:25:52;94576.38;;;28.15;43.76
80988;BME280;70452;39.386;-3.210;2023-08-12T07:28:20;94573.47;;;26.69;45.82
80988;BME280;70452;39.386;-3.210;2023-08-12T07:30:47;94578.38;;;26.52;46.65
80988;BME280;70452;39.386;-3.210;2023-08-12T07:33:22;94584.50;;;27.49;43.61
80988;BME280;70452;39.386;-3.210;2023-08-12T07:35:56;94593.22;;;26.83;45.30
80988;BME280;70452;39.386;-3.210;2023-08-12T07:38:25;94588.94;;;26.36;46.57
80988;BME280;70452;39.386;-3.210;2023-08-12T07:41:03;94582.59;;;26.66;45.60
80988;BME280;70452;39.386;-3.210;2023-08-12T07:43:38;94578.84;;;27.83;42.90
80988;BME280;70452;39.386;-3.210;2023-08-12T07:46:14;94582.66;;;27.64;42.00
80988;BME280;70452;39.386;-3.210;2023-08-12T07:48:51;94586.84;;;27.47;42.39
80988;BME280;70452;39.386;-3.210;2023-08-12T07:51:19;94587.78;;;27.92;41.17
80988;BME280;70452;39.386;-3.210;2023-08-12T07:53:59;94589.09;;;28.09;39.62
80988;BME280;70452;39.386;-3.210;2023-08-12T07:56:27;94581.19;;;28.70;37.54
80988;BME280;70452;39.386;-3.210;2023-08-12T07:59:00;94584.78;;;29.41;36.07
80988;BME280;70452;39.386;-3.210;2023-08-12T08:01:25;94584.97;;;27.92;39.03
80988;BME280;70452;39.386;-3.210;2023-08-12T08:03:56;94591.66;;;27.84;38.76
80988;BME280;70452;39.386;-3.210;2023-08-12T08:06:25;94589.91;;;29.21;35.83
80988;BME280;70452;39.386;-3.210;2023-08-12T08:09:05;94587.38;;;30.10;34.06
80988;BME280;70452;39.386;-3.210;2023-08-12T08:11:34;94585.38;;;30.25;33.98
80988;BME280;70452;39.386;-3.210;2023-08-12T08:14:07;94589.81;;;30.19;33.77
80988;BME280;70452;39.386;-3.210;2023-08-12T08:16:33;94594.66;;;30.62;32.66
80988;BME280;70452;39.386;-3.210;2023-08-12T08:19:02;94583.75;;;30.85;31.99
80988;BME280;70452;39.386;-3.210;2023-08-12T08:21:33;94577.34;;;30.81;32.57
80988;BME280;70452;39.386;-3.210;2023-08-12T08:24:15;94583.72;;;30.93;32.10
80988;BME280;70452;39.386;-3.210;2023-08-12T08:26:41;94578.13;;;31.00;31.80
80988;BME280;70452;39.386;-3.210;2023-08-12T08:29:10;94588.97;;;30.87;31.74
80988;BME280;70452;39.386;-3.210;2023-08-12T08:31:35;94584.31;;;31.62;30.67
80988;BME280;70452;39.386;-3.210;2023-08-12T08:36:53;94593.66;;;32.18;29.87
80988;BME280;70452;39.386;-3.210;2023-08-12T08:39:21;94589.66;;;32.19;29.71
80988;BME280;70452;39.386;-3.210;2023-08-12T08:41:48;94587.00;;;32.50;29.34
80988;BME280;70452;39.386;-3.210;2023-08-12T08:44:17;94585.31;;;32.00;28.15
80988;BME280;70452;39.386;-3.210;2023-08-12T08:46:47;94589.59;;;32.26;28.31
80988;BME280;70452;39.386;-3.210;2023-08-12T08:49:26;94592.06;;;32.69;27.76
80988;BME280;70452;39.386;-3.210;2023-08-12T08:52:07;94593.75;;;32.63;27.78
80988;BME280;70452;39.386;-3.210;2023-08-12T08:54:44;94593.19;;;32.79;27.93
80988;BME280;70452;39.386;-3.210;2023-08-12T08:57:12;94584.66;;;32.86;27.63
80988;BME280;70452;39.386;-3.210;2023-08-12T08:59:38;94589.06;;;33.29;26.67
80988;BME280;70452;39.386;-3.210;2023-08-12T09:02:15;94589.34;;;33.00;26.84
80988;BME280;70452;39.386;-3.210;2023-08-12T09:04:47;94590.59;;;32.50;27.16
80988;BME280;70452;39.386;-3.210;2023-08-12T09:07:27;94589.03;;;32.49;27.32
80988;BME280;70452;39.386;-3.210;2023-08-12T09:09:56;94592.91;;;32.66;26.70
80988;BME280;70452;39.386;-3.210;2023-08-12T09:12:24;94587.59;;;33.17;26.10
80988;BME280;70452;39.386;-3.210;2023-08-12T09:14:55;94586.22;;;33.63;25.63
80988;BME280;70452;39.386;-3.210;2023-08-12T09:17:27;94585.09;;;33.88;25.37
80988;BME280;70452;39.386;-3.210;2023-08-12T09:19:58;94594.00;;;33.21;25.18
80988;BME280;70452;39.386;-3.210;2023-08-12T09:22:37;94594.38;;;32.85;25.75
80988;BME280;70452;39.386;-3.210;2023-08-12T09:25:11;94584.81;;;33.48;24.84
80988;BME280;70452;39.386;-3.210;2023-08-12T09:27:41;94584.53;;;33.73;24.50
80988;BME280;70452;39.386;-3.210;2023-08-12T09:30:18;94586.25;;;33.94;24.40
80988;BME280;70452;39.386;-3.210;2023-08-12T09:33:01;94585.91;;;33.23;24.62
80988;BME280;70452;39.386;-3.210;2023-08-12T09:35:37;94582.50;;;33.39;24.66
80988;BME280;70452;39.386;-3.210;2023-08-12T09:38:14;94584.22;;;33.95;23.71
80988;BME280;70452;39.386;-3.210;2023-08-12T09:40:46;94586.63;;;33.96;23.42
80988;BME280;70452;39.386;-3.210;2023-08-12T09:43:13;94574.09;;;34.25;23.23
80988;BME280;70452;39.386;-3.210;2023-08-12T09:45:45;94573.09;;;34.38;23.03
80988;BME280;70452;39.386;-3.210;2023-08-12T09:48:33;94577.44;;;34.43;22.37
80988;BME280;70452;39.386;-3.210;2023-08-12T09:51:06;94576.28;;;34.41;22.75
80988;BME280;70452;39.386;-3.210;2023-08-12T09:53:36;94575.91;;;34.62;22.26
80988;BME280;70452;39.386;-3.210;2023-08-12T09:56:06;94579.34;;;34.77;21.92
80988;BME280;70452;39.386;-3.210;2023-08-12T09:58:35;94571.50;;;34.85;22.15
80988;BME280;70452;39.386;-3.210;2023-08-12T10:01:04;94582.00;;;35.08;21.68
80988;BME280;70452;39.386;-3.210;2023-08-12T10:03:41;94574.88;;;35.00;21.12
80988;BME280;70452;39.386;-3.210;2023-08-12T10:06:14;94570.50;;;34.95;20.86
80988;BME280;70452;39.386;-3.210;2023-08-12T10:08:40;94570.91;;;34.97;20.93
80988;BME280;70452;39.386;-3.210;2023-08-12T10:11:06;94569.78;;;34.91;20.89
80988;BME280;70452;39.386;-3.210;2023-08-12T10:13:34;94575.66;;;35.00;21.18
80988;BME280;70452;39.386;-3.210;2023-08-12T10:16:09;94569.38;;;35.12;21.17
80988;BME280;70452;39.386;-3.210;2023-08-12T10:18:46;94570.91;;;35.17;20.92
80988;BME280;70452;39.386;-3.210;2023-08-12T10:21:14;94567.41;;;35.33;20.79
80988;BME280;70452;39.386;-3.210;2023-08-12T10:23:46;94560.84;;;35.56;21.07
80988;BME280;70452;39.386;-3.210;2023-08-12T10:26:15;94562.00;;;35.59;21.07
80988;BME280;70452;39.386;-3.210;2023-08-12T10:28:53;94558.53;;;36.08;20.08
80988;BME280;70452;39.386;-3.210;2023-08-12T10:31:27;94554.91;;;35.51;20.63
80988;BME280;70452;39.386;-3.210;2023-08-12T10:33:59;94550.09;;;35.27;20.82
80988;BME280;70452;39.386;-3.210;2023-08-12T10:36:28;94553.97;;;35.57;20.38
80988;BME280;70452;39.386;-3.210;2023-08-12T10:38:55;94556.94;;;35.30;20.55
80988;BME280;70452;39.386;-3.210;2023-08-12T10:41:25;94557.88;;;36.00;19.66
80988;BME280;70452;39.386;-3.210;2023-08-12T10:43:58;94551.03;;;35.81;19.61
80988;BME280;70452;39.386;-3.210;2023-08-12T10:46:35;94541.03;;;35.93;19.45
80988;BME280;70452;39.386;-3.210;2023-08-12T10:49:09;94541.09;;;35.53;19.43
80988;BME280;70452;39.386;-3.210;2023-08-12T10:51:47;94539.81;;;36.10;19.04
80988;BME280;70452;39.386;-3.210;2023-08-12T10:54:23;94536.56;;;36.12;18.88
80988;BME280;70452;39.386;-3.210;2023-08-12T10:59:53;94529.06;;;36.21;18.69
80988;BME280;70452;39.386;-3.210;2023-08-12T11:02:36;94528.56;;;36.07;18.74
80988;BME280;70452;39.386;-3.210;2023-08-12T11:05:12;94533.41;;;36.26;19.08
80988;BME280;70452;39.386;-3.210;2023-08-12T11:07:46;94528.81;;;36.49;18.84
80988;BME280;70452;39.386;-3.210;2023-08-12T11:10:22;94522.94;;;36.39;18.55
80988;BME280;70452;39.386;-3.210;2023-08-12T11:12:55;94517.91;;;36.47;18.96
80988;BME280;70452;39.386;-3.210;2023-08-12T11:15:43;94504.09;;;36.33;18.35
80988;BME280;70452;39.386;-3.210;2023-08-12T11:18:18;94507.63;;;36.70;17.72
80988;BME280;70452;39.386;-3.210;2023-08-12T11:20:48;94507.16;;;36.71;17.22
80988;BME280;70452;39.386;-3.210;2023-08-12T11:23:16;94506.66;;;36.89;17.25
80988;BME280;70452;39.386;-3.210;2023-08-12T11:25:55;94489.00;;;36.98;17.43
80988;BME280;70452;39.386;-3.210;2023-08-12T11:28:27;94499.53;;;36.85;17.53
80988;BME280;70452;39.386;-3.210;2023-08-12T11:30:52;94491.56;;;37.09;16.67
80988;BME280;70452;39.386;-3.210;2023-08-12T11:33:18;94487.16;;;37.50;15.62
80988;BME280;70452;39.386;-3.210;2023-08-12T11:35:48;94489.47;;;37.81;15.66
80988;BME280;70452;39.386;-3.210;2023-08-12T11:38:17;94485.28;;;37.98;15.17
80988;BME280;70452;39.386;-3.210;2023-08-12T11:40:43;94490.59;;;37.83;14.33
80988;BME280;70452;39.386;-3.210;2023-08-12T11:43:22;94488.47;;;38.13;14.99
80988;BME280;70452;39.386;-3.210;2023-08-12T11:45:51;94478.56;;;37.79;14.79
80988;BME280;70452;39.386;-3.210;2023-08-12T11:48:23;94476.84;;;38.07;14.59
80988;BME280;70452;39.386;-3.210;2023-08-12T11:50:50;94485.03;;;38.18;13.99
80988;BME280;70452;39.386;-3.210;2023-08-12T11:53:30;94465.34;;;38.37;13.91
80988;BME280;70452;39.386;-3.210;2023-08-12T11:56:03;94467.84;;;38.22;13.95
80988;BME280;70452;39.386;-3.210;2023-08-12T11:58:36;94464.34;;;38.18;13.22
80988;BME280;70452;39.386;-3.210;2023-08-12T12:01:04;94463.88;;;38.32;13.70
80988;BME280;70452;39.386;-3.210;2023-08-12T12:03:42;94466.03;;;38.41;13.27
80988;BME280;70452;39.386;-3.210;2023-08-12T12:06:18;94460.78;;;38.39;12.85
80988;BME280;70452;39.386;-3.210;2023-08-12T12:09:07;94463.41;;;38.34;12.38
80988;BME280;70452;39.386;-3.210;2023-08-12T12:11:41;94460.63;;;38.56;12.34
80988;BME280;70452;39.386;-3.210;2023-08-12T12:14:08;94454.47;;;38.70;11.68
80988;BME280;70452;39.386;-3.210;2023-08-12T12:16:47;94460.28;;;38.54;11.79
80988;BME280;70452;39.386;-3.210;2023-08-12T12:19:24;94454.94;;;38.56;11.84
80988;BME280;70452;39.386;-3.210;2023-08-12T12:21:51;94445.63;;;38.90;11.89
80988;BME280;70452;39.386;-3.210;2023-08-12T12:24:18;94445.63;;;38.90;11.29
80988;BME280;70452;39.386;-3.210;2023-08-12T12:26:46;94441.81;;;39.06;10.54
80988;BME280;70452;39.386;-3.210;2023-08-12T12:29:19;94439.03;;;39.15;10.16
80988;BME280;70452;39.386;-3.210;2023-08-12T12:31:47;94432.25;;;39.00;10.25
80988;BME280;70452;39.386;-3.210;2023-08-12T12:34:12;94426.50;;;38.91;10.37
80988;BME280;70452;39.386;-3.210;2023-08-12T12:36:56;94433.84;;;39.01;9.71
80988;BME280;70452;39.386;-3.210;2023-08-12T12:39:29;94424.03;;;39.02;9.95
80988;BME280;70452;39.386;-3.210;2023-08-12T12:42:06;94422.56;;;38.97;9.76
80988;BME280;70452;39.386;-3.210;2023-08-12T12:44:36;94426.63;;;39.09;9.37
80988;BME280;70452;39.386;-3.210;2023-08-12T12:47:09;94422.31;;;39.27;9.09
80988;BME280;70452;39.386;-3.210;2023-08-12T12:49:42;94418.22;;;39.50;8.47
80988;BME280;70452;39.386;-3.210;2023-08-12T12:52:13;94417.78;;;39.61;8.85
80988;BME280;70452;39.386;-3.210;2023-08-12T12:54:44;94422.09;;;39.65;8.74
80988;BME280;70452;39.386;-3.210;2023-08-12T12:57:10;94422.56;;;39.42;8.88
80988;BME280;70452;39.386;-3.210;2023-08-12T12:59:38;94414.88;;;39.20;9.11
80988;BME280;70452;39.386;-3.210;2023-08-12T13:02:07;94409.38;;;38.34;9.58
80988;BME280;70452;39.386;-3.210;2023-08-12T13:04:38;94400.81;;;38.34;9.52
80988;BME280;70452;39.386;-3.210;2023-08-12T13:07:11;94404.09;;;37.84;9.74
80988;BME280;70452;39.386;-3.210;2023-08-12T13:09:42;94398.63;;;37.77;9.98
80988;BME280;70452;39.386;-3.210;2023-08-12T13:12:16;94407.97;;;37.78;10.37
80988;BME280;70452;39.386;-3.210;2023-08-12T13:14:53;94397.81;;;38.15;10.22
80988;BME280;70452;39.386;-3.210;2023-08-12T13:17:21;94406.50;;;38.46;9.88
80988;BME280;70452;39.386;-3.210;2023-08-12T13:19:49;94392.25;;;38.81;9.99
80988;BME280;70452;39.386;-3.210;2023-08-12T13:22:15;94402.28;;;39.08;9.53
80988;BME280;70452;39.386;-3.210;2023-08-12T13:24:51;94398.47;;;39.33;9.40
80988;BME280;70452;39.386;-3.210;2023-08-12T13:27:22;94400.78;;;39.48;9.30
80988;BME280;70452;39.386;-3.210;2023-08-12T13:29:54;94404.00;;;39.37;9.32
80988;BME280;70452;39.386;-3.210;2023-08-12T13:32:21;94410.56;;;39.47;9.32
80988;BME280;70452;39.386;-3.210;2023-08-12T13:34:52;94395.53;;;39.46;9.03
80988;BME280;70452;39.386;-3.210;2023-08-12T13:37:22;94392.38;;;39.44;9.03
80988;BME280;70452;39.386;-3.210;2023-08-12T13:39:50;94395.53;;;39.46;8.90
80988;BME280;70452;39.386;-3.210;2023-08-12T13:42:45;94402.81;;;39.47;9.13